createdAt,value
2023-02-11T00:00:42.052Z,27.47
2023-02-11T00:03:26.550Z,27.50
2023-02-11T00:06:00.831Z,27.27
2023-02-11T00:08:28.431Z,28.50
2023-02-11T00:10:56.852Z,28.53
2023-02-11T00:13:25.025Z,27.53
2023-02-11T00:15:52.326Z,26.93
2023-02-11T00:18:20.148Z,26.13
2023-02-11T00:20:46.936Z,26.73
2023-02-11T00:23:14.051Z,26.13
2023-02-11T00:25:42.299Z,23.93
2023-02-11T00:28:10.419Z,24.77
2023-02-11T00:30:37.974Z,25.33
2023-02-11T00:33:05.097Z,26.70
2023-02-11T00:35:32.434Z,25.37
2023-02-11T00:38:00.666Z,26.03
2023-02-11T00:40:27.644Z,24.03
2023-02-11T00:42:54.645Z,23.90
2023-02-11T00:45:21.452Z,24.83
2023-02-11T00:47:48.736Z,22.37
2023-02-11T00:50:15.540Z,24.87
2023-02-11T00:52:42.595Z,22.40
2023-02-11T00:55:09.484Z,24.60
2023-02-11T00:57:36.756Z,24.43
2023-02-11T01:00:05.013Z,24.20
2023-02-11T01:02:32.146Z,22.63
2023-02-11T01:05:00.111Z,22.23
2023-02-11T01:07:28.502Z,23.70
2023-02-11T01:09:55.568Z,21.53
2023-02-11T01:12:23.162Z,21.67
2023-02-11T01:14:50.039Z,21.80
2023-02-11T01:17:19.730Z,21.63
2023-02-11T01:19:49.968Z,21.20
2023-02-11T01:22:16.948Z,23.23
2023-02-11T01:24:43.662Z,21.33
2023-02-11T01:27:10.965Z,22.07
2023-02-11T01:29:37.725Z,21.63
2023-02-11T01:32:05.040Z,20.03
2023-02-11T01:34:31.773Z,20.00
2023-02-11T01:36:59.579Z,20.83
2023-02-11T01:39:28.706Z,19.70
2023-02-11T01:41:55.708Z,19.43
2023-02-11T01:44:28.567Z,20.03
2023-02-11T01:46:56.148Z,19.90
2023-02-11T01:49:32.735Z,19.30
2023-02-11T01:52:05.467Z,19.53
2023-02-11T01:54:55.366Z,18.10
2023-02-11T01:57:26.263Z,20.23
2023-02-11T02:00:02.170Z,18.50
2023-02-11T02:02:52.777Z,18.00
2023-02-11T02:05:35.028Z,19.77
2023-02-11T02:08:22.934Z,19.07
2023-02-11T02:10:56.191Z,18.70
2023-02-11T02:13:23.987Z,18.90
2023-02-11T02:15:54.923Z,19.60
2023-02-11T02:18:34.104Z,19.67
2023-02-11T02:21:32.831Z,20.00
2023-02-11T02:24:17.956Z,18.90
2023-02-11T02:27:21.562Z,19.93
2023-02-11T02:30:11.180Z,19.17
2023-02-11T02:33:02.172Z,20.10
2023-02-11T02:36:01.595Z,20.00
2023-02-11T02:38:54.372Z,18.73
2023-02-11T02:41:26.893Z,19.30
2023-02-11T02:43:54.571Z,19.00
2023-02-11T02:46:27.582Z,21.97
2023-02-11T02:48:55.356Z,19.97
2023-02-11T02:51:30.700Z,18.80
2023-02-11T02:54:17.802Z,21.27
2023-02-11T02:57:00.110Z,20.40
2023-02-11T02:59:45.139Z,21.00
2023-02-11T03:02:22.516Z,19.30
2023-02-11T03:05:08.138Z,20.83
2023-02-11T03:07:39.896Z,24.67
2023-02-11T03:10:25.463Z,21.90
2023-02-11T03:12:54.662Z,23.03
2023-02-11T03:15:24.550Z,22.57
2023-02-11T03:17:54.840Z,21.53
2023-02-11T03:20:23.011Z,22.67
2023-02-11T03:22:58.327Z,22.97
2023-02-11T03:25:31.508Z,23.37
2023-02-11T03:28:13.936Z,23.17
2023-02-11T03:30:53.419Z,23.50
2023-02-11T03:33:31.878Z,23.53
2023-02-11T03:36:06.955Z,22.30
2023-02-11T03:38:41.260Z,23.17
2023-02-11T03:41:09.916Z,25.43
2023-02-11T03:43:53.022Z,23.40
2023-02-11T03:46:24.071Z,24.83
2023-02-11T03:48:58.661Z,25.20
2023-02-11T03:51:27.146Z,23.10
2023-02-11T03:53:57.762Z,24.77
2023-02-11T03:56:28.705Z,25.57
2023-02-11T03:58:55.869Z,25.13
2023-02-11T04:01:22.745Z,25.43
2023-02-11T04:03:49.860Z,26.63
2023-02-11T04:06:16.558Z,26.17
2023-02-11T04:08:43.538Z,26.63
2023-02-11T04:11:10.366Z,26.73
2023-02-11T04:13:37.564Z,27.03
2023-02-11T04:16:04.574Z,25.83
2023-02-11T04:18:32.154Z,26.87
2023-02-11T04:20:58.877Z,27.67
2023-02-11T04:23:25.922Z,27.80
2023-02-11T04:25:52.803Z,27.30
2023-02-11T04:28:20.104Z,27.03
2023-02-11T04:30:46.918Z,26.93
2023-02-11T04:33:13.893Z,28.40
2023-02-11T04:35:40.597Z,28.40
2023-02-11T04:38:07.605Z,28.50
2023-02-11T04:40:34.380Z,27.13
2023-02-11T04:43:01.408Z,26.97
2023-02-11T04:45:28.115Z,28.87
2023-02-11T04:47:55.052Z,30.80
2023-02-11T04:50:21.811Z,29.83
2023-02-11T04:52:48.877Z,29.57
2023-02-11T04:55:15.769Z,28.00
2023-02-11T04:57:42.800Z,29.93
2023-02-11T05:00:10.346Z,28.77
2023-02-11T05:02:37.417Z,30.37
2023-02-11T05:05:05.389Z,31.53
2023-02-11T05:07:32.485Z,29.73
2023-02-11T05:09:59.239Z,28.97
2023-02-11T05:12:26.357Z,29.87
2023-02-11T05:14:53.064Z,30.43
2023-02-11T05:17:20.103Z,31.97
2023-02-11T05:19:46.893Z,30.50
2023-02-11T05:22:13.926Z,31.87
2023-02-11T05:24:40.787Z,30.10
2023-02-11T05:27:07.831Z,31.00
2023-02-11T05:29:34.588Z,31.07
2023-02-11T05:32:01.614Z,30.43
2023-02-11T05:34:28.529Z,31.33
2023-02-11T05:36:55.900Z,32.67
2023-02-11T05:39:22.692Z,31.60
2023-02-11T05:41:49.729Z,32.53
2023-02-11T05:44:16.463Z,32.43
2023-02-11T05:46:43.622Z,30.60
2023-02-11T05:49:10.512Z,32.17
2023-02-11T05:51:37.533Z,32.13
2023-02-11T05:54:04.547Z,31.13
2023-02-11T05:56:31.724Z,32.70
2023-02-11T05:58:59.880Z,33.90
2023-02-11T06:01:26.929Z,32.07
2023-02-11T06:03:53.806Z,31.83
2023-02-11T06:06:20.934Z,37.20
2023-02-11T06:08:47.757Z,36.83
2023-02-11T06:11:16.538Z,37.53
2023-02-11T06:13:43.690Z,37.73
2023-02-11T06:16:10.903Z,34.47
2023-02-11T06:18:37.763Z,37.13
2023-02-11T06:21:09.110Z,36.93
2023-02-11T06:23:36.079Z,34.57
2023-02-11T06:26:08.463Z,39.20
2023-02-11T06:28:36.104Z,34.97
2023-02-11T06:31:07.684Z,35.37
2023-02-11T06:33:35.462Z,36.70
2023-02-11T06:36:02.803Z,39.30
2023-02-11T06:38:29.598Z,39.27
2023-02-11T06:40:56.809Z,38.60
2023-02-11T06:43:23.551Z,39.27
2023-02-11T06:45:54.510Z,38.83
2023-02-11T06:48:22.418Z,40.93
2023-02-11T06:50:49.365Z,38.27
2023-02-11T06:53:16.171Z,38.63
2023-02-11T06:55:43.216Z,38.70
2023-02-11T06:58:09.991Z,38.77
2023-02-11T07:00:37.489Z,40.30
2023-02-11T07:03:04.402Z,40.80
2023-02-11T07:05:31.742Z,40.17
2023-02-11T07:07:58.521Z,37.43
2023-02-11T07:10:25.488Z,40.70
2023-02-11T07:12:52.677Z,40.33
2023-02-11T07:15:19.747Z,40.00
2023-02-11T07:17:46.578Z,39.07
2023-02-11T07:20:14.989Z,38.60
2023-02-11T07:22:41.778Z,39.67
2023-02-11T07:25:08.814Z,37.47
2023-02-11T07:27:35.850Z,40.03
2023-02-11T07:30:06.996Z,37.07
2023-02-11T07:32:34.245Z,38.13
2023-02-11T07:35:01.337Z,38.13
2023-02-11T07:37:28.459Z,40.27
2023-02-11T07:39:55.507Z,35.83
2023-02-11T07:42:22.266Z,37.43
2023-02-11T07:44:50.514Z,36.80
2023-02-11T07:47:17.784Z,37.80
2023-02-11T07:49:45.590Z,35.27
2023-02-11T07:52:12.356Z,37.00
2023-02-11T07:54:39.427Z,35.53
2023-02-11T07:57:06.179Z,35.03
2023-02-11T07:59:33.267Z,35.50
2023-02-11T08:02:00.099Z,33.17
2023-02-11T08:04:27.288Z,34.80
2023-02-11T08:06:58.976Z,36.57
2023-02-11T08:09:26.234Z,36.30
2023-02-11T08:11:53.071Z,33.13
2023-02-11T08:14:20.607Z,33.93
2023-02-11T08:16:47.550Z,34.37
2023-02-11T08:19:16.399Z,33.00
2023-02-11T08:21:43.588Z,31.87
2023-02-11T08:24:11.465Z,33.73
2023-02-11T08:26:38.622Z,32.07
2023-02-11T08:29:10.233Z,33.10
2023-02-11T08:31:40.753Z,33.20
2023-02-11T08:34:08.196Z,31.77
2023-02-11T08:36:36.795Z,31.83
2023-02-11T08:39:18.491Z,32.77
2023-02-11T08:41:52.182Z,31.63
2023-02-11T08:44:21.062Z,33.43
2023-02-11T08:46:48.855Z,32.83
2023-02-11T08:49:16.685Z,33.30
2023-02-11T08:51:43.588Z,35.20
2023-02-11T08:54:11.234Z,33.67
2023-02-11T08:56:39.317Z,34.13
2023-02-11T08:59:07.471Z,37.10
2023-02-11T09:01:34.554Z,36.97
2023-02-11T09:04:01.620Z,37.03
2023-02-11T09:06:29.122Z,36.97
2023-02-11T09:08:57.607Z,37.90
2023-02-11T09:11:31.542Z,37.63
2023-02-11T09:13:59.424Z,37.10
2023-02-11T09:16:28.864Z,39.77
2023-02-11T09:18:57.970Z,40.23
2023-02-11T09:21:25.313Z,41.30
2023-02-11T09:23:52.595Z,40.00
2023-02-11T09:26:31.493Z,39.33
2023-02-11T09:28:59.135Z,37.97
2023-02-11T09:31:28.954Z,39.77
2023-02-11T09:33:59.163Z,37.90
2023-02-11T09:36:29.225Z,41.63
2023-02-11T09:38:58.375Z,41.97
2023-02-11T09:41:43.365Z,43.77
2023-02-11T09:44:20.003Z,39.87
2023-02-11T09:46:54.325Z,41.50
2023-02-11T09:49:57.202Z,41.30
2023-02-11T09:52:38.385Z,43.73
2023-02-11T09:55:17.292Z,41.20
2023-02-11T09:57:44.367Z,41.40
2023-02-11T10:00:25.080Z,41.03
2023-02-11T10:03:08.781Z,43.10
2023-02-11T10:05:52.480Z,41.57
2023-02-11T10:08:46.663Z,42.43
2023-02-11T10:12:04.493Z,41.93
2023-02-11T10:14:55.946Z,39.37
2023-02-11T10:17:33.483Z,39.53
2023-02-11T10:20:33.853Z,40.87
2023-02-11T10:23:15.092Z,39.67
2023-02-11T10:25:48.330Z,38.97
2023-02-11T10:28:18.599Z,38.57
2023-02-11T10:30:59.888Z,37.73
2023-02-11T10:33:32.630Z,38.77
2023-02-11T10:35:59.938Z,39.60
2023-02-11T10:38:27.802Z,38.17
2023-02-11T10:40:54.624Z,39.13
2023-02-11T10:43:26.825Z,37.53
2023-02-11T10:45:55.935Z,36.13
2023-02-11T10:48:46.656Z,36.90
2023-02-11T10:51:14.632Z,35.70
2023-02-11T10:53:42.085Z,37.27
2023-02-11T10:56:14.383Z,37.23
2023-02-11T10:58:45.631Z,37.07
2023-02-11T11:01:23.777Z,37.97
2023-02-11T11:03:53.050Z,34.83
2023-02-11T11:06:31.591Z,36.77
2023-02-11T11:08:59.106Z,35.10
2023-02-11T11:11:26.574Z,35.03
2023-02-11T11:13:53.623Z,34.93
2023-02-11T11:16:35.700Z,37.30
2023-02-11T11:19:08.502Z,35.33
2023-02-11T11:21:41.993Z,34.83
2023-02-11T11:24:31.613Z,36.70
2023-02-11T11:27:01.474Z,36.70
2023-02-11T11:29:43.164Z,34.50
2023-02-11T11:32:20.535Z,35.43
2023-02-11T11:35:02.689Z,34.03
2023-02-11T11:37:32.297Z,32.83
2023-02-11T11:40:08.302Z,33.50
2023-02-11T11:42:37.588Z,31.27
2023-02-11T11:45:17.588Z,30.17
2023-02-11T11:48:03.091Z,31.17
2023-02-11T11:50:47.166Z,29.27
2023-02-11T11:53:23.006Z,27.43
2023-02-11T11:56:00.367Z,29.13
2023-02-11T11:58:29.901Z,31.00
2023-02-11T12:01:01.922Z,27.33
2023-02-11T12:04:05.112Z,28.13
2023-02-11T12:06:47.016Z,27.63
2023-02-11T12:09:31.497Z,28.13
2023-02-11T12:12:05.540Z,28.23
2023-02-11T12:14:47.510Z,26.60
2023-02-11T12:17:36.218Z,27.63
2023-02-11T12:20:21.915Z,26.50
2023-02-11T12:23:03.750Z,26.20
2023-02-11T12:25:38.991Z,26.80
2023-02-11T12:28:18.413Z,27.17
2023-02-11T12:31:03.145Z,25.90
2023-02-11T12:33:55.252Z,24.60
2023-02-11T12:36:54.341Z,23.93
2023-02-11T12:39:30.583Z,25.13
2023-02-11T12:42:53.770Z,23.50
2023-02-11T12:45:59.058Z,23.07
2023-02-11T12:48:36.080Z,23.13
2023-02-11T12:51:24.786Z,24.23
2023-02-11T12:54:18.718Z,23.00
2023-02-11T12:56:52.185Z,23.53
2023-02-11T12:59:24.846Z,24.57
2023-02-11T13:01:52.865Z,24.67
2023-02-11T13:04:33.244Z,23.57
2023-02-11T13:07:14.562Z,22.87
2023-02-11T13:10:13.859Z,22.80
2023-02-11T13:13:04.530Z,21.87
2023-02-11T13:15:31.825Z,21.43
2023-02-11T13:18:13.726Z,21.53
2023-02-11T13:20:51.527Z,22.33
2023-02-11T13:23:41.585Z,20.43
2023-02-11T13:26:17.584Z,20.03
2023-02-11T13:29:05.946Z,19.87
2023-02-11T13:31:32.920Z,21.30
2023-02-11T13:34:00.035Z,19.63
2023-02-11T13:36:30.193Z,18.93
2023-02-11T13:39:00.655Z,20.60
2023-02-11T13:41:52.251Z,18.97
2023-02-11T13:44:24.913Z,20.23
2023-02-11T13:47:04.987Z,20.73
2023-02-11T13:49:35.971Z,24.13
2023-02-11T13:52:06.582Z,25.43
2023-02-11T13:54:37.713Z,26.27
2023-02-11T13:57:19.880Z,27.47
2023-02-11T14:00:17.288Z,24.53
2023-02-11T14:03:02.739Z,29.03
2023-02-11T14:05:50.018Z,49.80
2023-02-11T14:08:39.920Z,43.67
2023-02-11T14:11:27.762Z,37.50
2023-02-11T14:13:55.825Z,30.23
2023-02-11T14:16:36.964Z,30.73
2023-02-11T14:19:06.238Z,29.53
2023-02-11T14:21:37.515Z,26.43
2023-02-11T14:24:04.954Z,25.17
2023-02-11T14:26:42.602Z,27.40
2023-02-11T14:29:28.072Z,28.37
2023-02-11T14:32:06.112Z,25.67
2023-02-11T14:34:56.967Z,23.90
2023-02-11T14:37:30.422Z,24.03
2023-02-11T14:40:09.266Z,25.17
2023-02-11T14:42:38.299Z,24.70
2023-02-11T14:45:09.105Z,23.13
2023-02-11T14:47:42.908Z,26.93
2023-02-11T14:50:19.506Z,25.77
2023-02-11T14:52:47.416Z,23.73
2023-02-11T14:55:38.111Z,24.97
2023-02-11T14:58:30.079Z,27.33
2023-02-11T15:01:03.419Z,28.20
2023-02-11T15:03:30.520Z,29.50
2023-02-11T15:06:20.557Z,25.83
2023-02-11T15:09:00.804Z,25.47
2023-02-11T15:11:32.135Z,24.90
2023-02-11T15:14:07.975Z,23.70
2023-02-11T15:16:39.716Z,27.17
2023-02-11T15:19:07.666Z,24.47
2023-02-11T15:21:36.237Z,24.03
2023-02-11T15:24:06.572Z,25.50
2023-02-11T15:26:33.929Z,30.27
2023-02-11T15:29:00.997Z,29.97
2023-02-11T15:31:28.650Z,24.33
2023-02-11T15:33:56.228Z,27.97
2023-02-11T15:36:28.424Z,26.37
2023-02-11T15:39:18.534Z,22.20
2023-02-11T15:41:45.540Z,23.53
2023-02-11T15:44:33.134Z,23.07
2023-02-11T15:47:00.337Z,19.80
2023-02-11T15:49:27.511Z,21.33
2023-02-11T15:51:57.519Z,22.93
2023-02-11T15:54:28.170Z,21.93
2023-02-11T15:57:02.757Z,21.37
2023-02-11T15:59:38.312Z,21.87
2023-02-11T16:02:07.244Z,24.60
2023-02-11T16:04:34.418Z,24.80
2023-02-11T16:07:01.264Z,27.13
2023-02-11T16:09:33.034Z,26.27
2023-02-11T16:12:22.417Z,24.63
2023-02-11T16:14:49.511Z,26.30
2023-02-11T16:17:18.986Z,26.03
2023-02-11T16:19:48.590Z,26.40
2023-02-11T16:22:28.828Z,28.13
2023-02-11T16:24:59.425Z,30.00
2023-02-11T16:27:34.403Z,32.40
2023-02-11T16:30:01.853Z,35.03
2023-02-11T16:32:30.172Z,34.57
2023-02-11T16:35:00.633Z,36.90
2023-02-11T16:37:27.562Z,32.53
2023-02-11T16:40:01.190Z,32.07
2023-02-11T16:42:27.992Z,27.63
2023-02-11T16:44:55.061Z,23.43
2023-02-11T16:47:27.514Z,23.13
2023-02-11T16:49:56.231Z,18.80
2023-02-11T16:52:23.958Z,19.40
2023-02-11T16:54:51.123Z,19.03
2023-02-11T16:57:20.990Z,18.40
2023-02-11T16:59:48.092Z,19.33
2023-02-11T17:02:26.971Z,21.33
2023-02-11T17:04:55.738Z,19.70
2023-02-11T17:07:22.806Z,21.23
2023-02-11T17:09:49.907Z,21.50
2023-02-11T17:12:18.496Z,20.17
2023-02-11T17:14:45.571Z,27.83
2023-02-11T17:17:12.785Z,22.67
2023-02-11T17:19:40.062Z,22.83
2023-02-11T17:22:06.873Z,23.97
2023-02-11T17:24:33.847Z,22.90
2023-02-11T17:27:00.572Z,21.63
2023-02-11T17:29:27.637Z,22.17
2023-02-11T17:31:54.732Z,22.20
2023-02-11T17:34:22.276Z,24.07
2023-02-11T17:36:49.737Z,22.70
2023-02-11T17:39:16.752Z,19.27
2023-02-11T17:41:43.553Z,19.23
2023-02-11T17:44:12.522Z,20.43
2023-02-11T17:46:39.446Z,19.73
2023-02-11T17:49:06.568Z,21.00
2023-02-11T17:51:35.603Z,23.03
2023-02-11T17:54:06.092Z,24.63
2023-02-11T17:56:34.994Z,25.90
2023-02-11T17:59:02.890Z,25.20
2023-02-11T18:01:31.680Z,25.30
2023-02-11T18:03:59.021Z,26.80
2023-02-11T18:06:26.839Z,24.57
2023-02-11T18:08:56.311Z,25.67
2023-02-11T18:11:25.259Z,26.40
2023-02-11T18:13:54.512Z,26.83
2023-02-11T18:16:22.884Z,28.37
2023-02-11T18:18:51.523Z,30.57
2023-02-11T18:21:21.182Z,28.20
2023-02-11T18:23:48.953Z,26.80
2023-02-11T18:26:17.954Z,26.30
2023-02-11T18:28:46.066Z,29.47
2023-02-11T18:31:14.083Z,27.27
2023-02-11T18:33:42.019Z,29.60
2023-02-11T18:36:11.704Z,27.07
2023-02-11T18:38:39.614Z,26.47
2023-02-11T18:41:07.461Z,25.27
2023-02-11T18:43:35.067Z,26.57
2023-02-11T18:46:06.657Z,25.90
2023-02-11T18:48:34.147Z,26.93
2023-02-11T18:51:00.931Z,24.87
2023-02-11T18:53:28.084Z,26.43
2023-02-11T18:55:55.178Z,25.93
2023-02-11T18:58:22.545Z,30.33
2023-02-11T19:00:50.109Z,32.17
2023-02-11T19:03:17.301Z,31.90
2023-02-11T19:05:49.340Z,29.33
2023-02-11T19:08:17.172Z,29.17
2023-02-11T19:10:46.524Z,26.07
2023-02-11T19:13:14.031Z,26.57
2023-02-11T19:15:42.634Z,25.17
2023-02-11T19:18:10.091Z,25.77
2023-02-11T19:20:42.954Z,24.57
2023-02-11T19:23:10.900Z,25.43
2023-02-11T19:25:38.162Z,25.03
2023-02-11T19:28:05.299Z,25.93
2023-02-11T19:30:32.073Z,26.53
2023-02-11T19:32:59.350Z,25.77
2023-02-11T19:35:26.073Z,24.33
2023-02-11T19:37:53.111Z,23.97
2023-02-11T19:40:21.296Z,27.90
2023-02-11T19:42:48.573Z,23.80
2023-02-11T19:45:15.630Z,25.43
2023-02-11T19:47:42.784Z,28.17
2023-02-11T19:50:10.000Z,25.07
2023-02-11T19:52:38.390Z,27.63
2023-02-11T19:55:05.541Z,30.43
2023-02-11T19:57:32.589Z,32.87
2023-02-11T19:59:59.521Z,32.07
2023-02-11T20:02:26.731Z,30.43
2023-02-11T20:04:53.791Z,27.87
2023-02-11T20:07:21.055Z,28.60
2023-02-11T20:09:47.957Z,28.67
2023-02-11T20:12:14.962Z,31.13
2023-02-11T20:14:41.675Z,27.47
2023-02-11T20:17:08.932Z,27.00
2023-02-11T20:19:35.630Z,27.47
2023-02-11T20:22:02.682Z,26.13
2023-02-11T20:24:29.370Z,27.27
2023-02-11T20:26:56.594Z,25.13
2023-02-11T20:29:24.738Z,23.97
2023-02-11T20:31:51.893Z,22.17
2023-02-11T20:34:18.930Z,22.63
2023-02-11T20:36:52.224Z,20.63
2023-02-11T20:39:21.852Z,20.57
2023-02-11T20:41:49.726Z,21.47
2023-02-11T20:44:16.713Z,20.70
2023-02-11T20:46:48.090Z,18.63
2023-02-11T20:49:18.786Z,20.80
2023-02-11T20:51:46.949Z,23.77
2023-02-11T20:54:16.119Z,20.67
2023-02-11T20:56:45.563Z,16.27
2023-02-11T20:59:14.403Z,18.63
2023-02-11T21:01:45.933Z,15.80
2023-02-11T21:04:15.789Z,14.57
2023-02-11T21:06:45.768Z,13.83
2023-02-11T21:09:19.740Z,14.23
2023-02-11T21:11:47.258Z,9.03
2023-02-11T21:14:14.393Z,8.03
2023-02-11T21:16:41.490Z,8.17
2023-02-11T21:19:08.400Z,5.73
2023-02-11T21:21:37.538Z,6.17
2023-02-11T21:24:06.233Z,5.10
2023-02-11T21:26:35.297Z,5.87
2023-02-11T21:29:04.270Z,5.33
2023-02-11T21:31:33.197Z,5.37
2023-02-11T21:34:00.802Z,6.43
2023-02-11T21:36:29.204Z,5.47
2023-02-11T21:38:56.147Z,6.07
2023-02-11T21:41:24.687Z,6.83
2023-02-11T21:43:52.257Z,5.93
2023-02-11T21:46:20.633Z,6.37
2023-02-11T21:48:48.179Z,5.30
2023-02-11T21:51:21.518Z,5.30
2023-02-11T21:53:52.576Z,6.03
2023-02-11T21:56:19.652Z,4.70
2023-02-11T21:58:47.026Z,4.60
2023-02-11T22:01:17.026Z,4.37
2023-02-11T22:03:44.712Z,4.50
2023-02-11T22:06:15.318Z,4.17
2023-02-11T22:08:42.216Z,4.10
2023-02-11T22:11:12.145Z,3.50
2023-02-11T22:13:39.657Z,3.10
2023-02-11T22:16:11.264Z,3.23
2023-02-11T22:18:38.699Z,3.00
2023-02-11T22:21:11.489Z,2.93
2023-02-11T22:23:39.490Z,2.60
2023-02-11T22:26:12.995Z,2.77
2023-02-11T22:28:40.861Z,3.00
2023-02-11T22:31:12.378Z,2.40
2023-02-11T22:33:39.568Z,2.47
2023-02-11T22:36:12.427Z,2.40
2023-02-11T22:38:39.151Z,3.50
2023-02-11T22:41:08.757Z,2.57
2023-02-11T22:43:36.612Z,2.80
2023-02-11T22:46:06.702Z,3.20
2023-02-11T22:48:35.092Z,3.60
2023-02-11T22:51:17.543Z,3.50
2023-02-11T22:53:44.529Z,3.07
2023-02-11T22:56:15.489Z,3.20
2023-02-11T22:58:42.992Z,3.57
2023-02-11T23:01:10.494Z,3.60
2023-02-11T23:03:37.263Z,3.50
2023-02-11T23:06:04.837Z,3.63
2023-02-11T23:08:32.754Z,4.30
2023-02-11T23:11:08.262Z,4.07
2023-02-11T23:13:37.224Z,5.97
2023-02-11T23:16:07.304Z,5.73
2023-02-11T23:18:35.105Z,4.77
2023-02-11T23:21:09.486Z,5.40
2023-02-11T23:23:37.805Z,4.83
2023-02-11T23:26:08.736Z,4.53
2023-02-11T23:28:35.536Z,4.23
2023-02-11T23:31:19.843Z,4.23
2023-02-11T23:33:47.938Z,4.03
2023-02-11T23:36:15.900Z,4.70
2023-02-11T23:38:42.742Z,4.27
2023-02-11T23:41:10.886Z,4.70
2023-02-11T23:43:38.185Z,4.43
2023-02-11T23:46:06.220Z,4.60
2023-02-11T23:48:33.729Z,5.03
2023-02-11T23:51:00.752Z,4.17
2023-02-11T23:53:27.469Z,4.23
2023-02-11T23:55:54.850Z,5.07
2023-02-11T23:58:21.770Z,4.70
